createdAt,value
2019-05-17T00:02:09.969Z,99.19
2019-05-17T00:04:37.176Z,99.27
2019-05-17T00:07:06.521Z,99.29
2019-05-17T00:09:34.095Z,99.33
2019-05-17T00:12:01.808Z,99.42
2019-05-17T00:14:29.033Z,99.41
2019-05-17T00:16:57.350Z,99.43
2019-05-17T00:19:26.348Z,99.38
2019-05-17T00:21:56.497Z,99.38
2019-05-17T00:24:23.602Z,99.59
2019-05-17T00:26:51.191Z,99.55
2019-05-17T00:29:18.965Z,99.29
2019-05-17T00:31:47.133Z,99.29
2019-05-17T00:34:16.606Z,99.60
2019-05-17T00:36:44.073Z,99.60
2019-05-17T00:39:11.553Z,100.00
2019-05-17T00:41:38.973Z,100.00
2019-05-17T00:44:06.473Z,99.73
2019-05-17T00:46:33.715Z,99.52
2019-05-17T00:49:01.324Z,99.86
2019-05-17T00:51:29.186Z,99.92
2019-05-17T00:53:56.607Z,99.83
2019-05-17T00:56:26.656Z,99.83
2019-05-17T00:58:54.203Z,99.68
2019-05-17T01:01:21.750Z,99.68
2019-05-17T01:03:49.122Z,99.80
2019-05-17T01:06:17.051Z,99.88
2019-05-17T01:08:46.396Z,99.97
2019-05-17T01:11:13.608Z,100.00
2019-05-17T01:13:41.158Z,100.00
2019-05-17T01:16:08.505Z,100.00
2019-05-17T01:18:36.319Z,100.00
2019-05-17T01:21:06.468Z,100.00
2019-05-17T01:23:36.240Z,100.00
2019-05-17T01:26:03.958Z,100.00
2019-05-17T01:28:31.684Z,100.00
2019-05-17T01:30:59.026Z,100.00
2019-05-17T01:33:26.639Z,100.00
2019-05-17T01:35:54.157Z,100.00
2019-05-17T01:38:21.271Z,100.00
2019-05-17T01:40:48.728Z,100.00
2019-05-17T01:43:16.658Z,100.00
2019-05-17T01:45:44.299Z,100.00
2019-05-17T01:48:11.895Z,100.00
2019-05-17T01:50:39.279Z,100.00
2019-05-17T01:53:07.465Z,100.00
2019-05-17T01:55:37.578Z,100.00
2019-05-17T01:58:06.992Z,100.00
2019-05-17T02:00:33.673Z,100.00
2019-05-17T02:03:01.333Z,100.00
2019-05-17T02:05:29.134Z,100.00
2019-05-17T02:07:56.929Z,100.00
2019-05-17T02:10:24.439Z,100.00
2019-05-17T02:12:51.844Z,100.00
2019-05-17T02:15:20.033Z,100.00
2019-05-17T02:17:47.584Z,100.00
2019-05-17T02:20:17.107Z,100.00
2019-05-17T02:22:47.062Z,100.00
2019-05-17T02:25:16.768Z,100.00
2019-05-17T02:27:44.860Z,100.00
2019-05-17T02:30:14.509Z,100.00
2019-05-17T02:32:43.495Z,100.00
2019-05-17T02:35:14.675Z,100.00
2019-05-17T02:37:43.482Z,100.00
2019-05-17T02:40:14.483Z,100.00
2019-05-17T02:42:42.981Z,100.00
2019-05-17T02:45:13.279Z,100.00
2019-05-17T02:47:43.606Z,100.00
2019-05-17T02:50:12.827Z,100.00
2019-05-17T02:52:43.397Z,100.00
2019-05-17T02:55:12.764Z,100.00
2019-05-17T02:57:42.833Z,100.00
2019-05-17T03:00:12.979Z,100.00
2019-05-17T03:02:42.852Z,100.00
2019-05-17T03:05:12.565Z,100.00
2019-05-17T03:07:38.705Z,100.00
2019-05-17T03:10:18.383Z,100.00
2019-05-17T03:12:36.531Z,100.00
2019-05-17T03:15:04.497Z,100.00
2019-05-17T03:17:33.806Z,100.00
2019-05-17T03:20:04.072Z,100.00
2019-05-17T03:22:33.130Z,100.00
2019-05-17T03:25:03.193Z,100.00
2019-05-17T03:27:29.862Z,100.00
2019-05-17T03:29:57.156Z,100.00
2019-05-17T03:32:27.104Z,100.00
2019-05-17T03:34:56.440Z,100.00
2019-05-17T03:37:30.136Z,100.00
2019-05-17T03:39:53.755Z,100.00
2019-05-17T03:42:22.632Z,100.00
2019-05-17T03:44:53.040Z,100.00
2019-05-17T03:47:22.679Z,100.00
2019-05-17T03:49:52.871Z,100.00
2019-05-17T03:52:22.228Z,100.00
2019-05-17T03:54:52.442Z,100.00
2019-05-17T03:57:23.635Z,100.00
2019-05-17T03:59:52.280Z,100.00
2019-05-17T04:02:19.076Z,100.00
2019-05-17T04:04:46.578Z,100.00
2019-05-17T04:07:13.797Z,100.00
2019-05-17T04:09:43.784Z,100.00
2019-05-17T04:12:13.493Z,100.00
2019-05-17T04:14:42.743Z,100.00
2019-05-17T04:17:09.515Z,100.00
2019-05-17T04:19:37.909Z,100.00
2019-05-17T04:22:05.236Z,100.00
2019-05-17T04:24:33.122Z,100.00
2019-05-17T04:27:03.582Z,100.00
2019-05-17T04:29:33.228Z,100.00
2019-05-17T04:31:59.703Z,100.00
2019-05-17T04:34:27.422Z,100.00
2019-05-17T04:36:54.692Z,100.00
2019-05-17T04:39:22.735Z,100.00
2019-05-17T04:41:54.652Z,100.00
2019-05-17T04:44:19.667Z,100.00
2019-05-17T04:46:47.611Z,100.00
2019-05-17T04:49:15.801Z,100.00
2019-05-17T04:51:44.103Z,100.00
2019-05-17T04:54:13.732Z,100.00
2019-05-17T04:56:42.611Z,100.00
2019-05-17T04:59:13.461Z,100.00
2019-05-17T05:01:39.222Z,100.00
2019-05-17T05:04:06.879Z,100.00
2019-05-17T05:06:34.651Z,100.00
2019-05-17T05:09:05.545Z,100.00
2019-05-17T05:11:33.101Z,100.00
2019-05-17T05:14:02.760Z,100.00
2019-05-17T05:16:31.863Z,100.00
2019-05-17T05:19:02.627Z,100.00
2019-05-17T05:21:32.062Z,100.00
2019-05-17T05:23:58.553Z,100.00
2019-05-17T05:26:25.906Z,100.00
2019-05-17T05:28:53.425Z,100.00
2019-05-17T05:31:22.744Z,100.00
2019-05-17T05:33:52.144Z,100.00
2019-05-17T05:36:19.459Z,100.00
2019-05-17T05:38:46.975Z,100.00
2019-05-17T05:41:14.294Z,100.00
2019-05-17T05:43:42.163Z,100.00
2019-05-17T05:46:11.693Z,100.00
2019-05-17T05:48:41.602Z,100.00
2019-05-17T05:51:09.279Z,100.00
2019-05-17T05:53:36.727Z,100.00
2019-05-17T05:56:04.389Z,100.00
2019-05-17T05:58:32.742Z,100.00
2019-05-17T06:01:02.354Z,100.00
2019-05-17T06:03:29.263Z,100.00
2019-05-17T06:05:56.870Z,100.00
2019-05-17T06:08:24.173Z,100.00
2019-05-17T06:10:53.127Z,100.00
2019-05-17T06:13:21.821Z,100.00
2019-05-17T06:15:51.775Z,100.00
2019-05-17T06:18:19.292Z,100.00
2019-05-17T06:20:46.954Z,100.00
2019-05-17T06:23:15.553Z,100.00
2019-05-17T06:25:43.792Z,100.00
2019-05-17T06:28:11.722Z,100.00
2019-05-17T06:30:42.717Z,100.00
2019-05-17T06:33:11.702Z,100.00
2019-05-17T06:35:38.683Z,100.00
2019-05-17T06:38:06.062Z,100.00
2019-05-17T06:40:33.262Z,100.00
2019-05-17T06:43:04.252Z,100.00
2019-05-17T06:45:32.540Z,99.86
2019-05-17T06:48:02.369Z,99.69
2019-05-17T06:50:29.473Z,99.71
2019-05-17T06:52:57.361Z,99.76
2019-05-17T06:55:24.639Z,99.75
2019-05-17T06:57:52.766Z,99.67
2019-05-17T07:00:23.762Z,99.55
2019-05-17T07:02:49.896Z,99.69
2019-05-17T07:05:20.068Z,99.60
2019-05-17T07:07:49.842Z,99.63
2019-05-17T07:10:19.476Z,99.78
2019-05-17T07:12:57.739Z,99.92
2019-05-17T07:15:15.620Z,99.90
2019-05-17T07:17:43.250Z,99.89
2019-05-17T07:20:10.848Z,99.90
2019-05-17T07:22:41.209Z,99.91
2019-05-17T07:25:10.797Z,99.84
2019-05-17T07:27:44.839Z,99.79
2019-05-17T07:30:09.942Z,99.90
2019-05-17T07:32:40.270Z,99.93
2019-05-17T07:35:07.404Z,99.92
2019-05-17T07:37:34.674Z,99.86
2019-05-17T07:40:05.441Z,99.95
2019-05-17T07:42:32.957Z,99.69
2019-05-17T07:45:00.692Z,99.78
2019-05-17T07:47:29.468Z,99.77
2019-05-17T07:49:56.974Z,99.60
2019-05-17T07:52:24.583Z,99.53
2019-05-17T07:54:51.699Z,99.40
2019-05-17T07:57:22.277Z,99.55
2019-05-17T07:59:50.799Z,99.50
2019-05-17T08:02:19.905Z,99.50
2019-05-17T08:04:49.929Z,99.43
2019-05-17T08:07:16.683Z,99.42
2019-05-17T08:09:44.717Z,99.15
2019-05-17T08:12:12.163Z,99.14
2019-05-17T08:14:40.352Z,98.74
2019-05-17T08:17:09.790Z,98.69
2019-05-17T08:19:37.074Z,98.49
2019-05-17T08:22:04.611Z,98.16
2019-05-17T08:24:32.039Z,97.96
2019-05-17T08:27:00.032Z,97.84
2019-05-17T08:29:29.747Z,97.90
2019-05-17T08:31:57.161Z,98.00
2019-05-17T08:34:25.004Z,98.02
2019-05-17T08:36:52.327Z,98.07
2019-05-17T08:39:19.926Z,97.92
2019-05-17T08:41:49.639Z,97.47
2019-05-17T08:44:16.640Z,97.62
2019-05-17T08:46:44.534Z,97.81
2019-05-17T08:49:12.133Z,97.98
2019-05-17T08:51:40.848Z,97.80
2019-05-17T08:54:10.392Z,97.78
2019-05-17T08:56:40.177Z,97.76
2019-05-17T08:59:09.613Z,97.64
2019-05-17T09:01:39.201Z,97.68
2019-05-17T09:04:06.262Z,97.29
2019-05-17T09:06:33.994Z,97.12
2019-05-17T09:09:01.443Z,96.99
2019-05-17T09:11:30.694Z,96.31
2019-05-17T09:14:01.640Z,95.35
2019-05-17T09:16:27.217Z,94.96
2019-05-17T09:18:54.815Z,95.15
2019-05-17T09:21:22.276Z,95.40
2019-05-17T09:23:50.431Z,95.81
2019-05-17T09:26:20.045Z,95.60
2019-05-17T09:28:49.812Z,95.13
2019-05-17T09:31:17.270Z,94.07
2019-05-17T09:33:45.182Z,93.96
2019-05-17T09:36:12.746Z,93.56
2019-05-17T09:38:40.603Z,94.04
2019-05-17T09:41:09.355Z,93.22
2019-05-17T09:43:37.056Z,92.76
2019-05-17T09:46:05.137Z,91.90
2019-05-17T09:48:32.785Z,92.19
2019-05-17T09:51:00.430Z,91.88
2019-05-17T09:53:27.672Z,91.37
2019-05-17T09:55:55.325Z,91.29
2019-05-17T09:58:22.609Z,91.14
2019-05-17T10:00:50.121Z,90.86
2019-05-17T10:03:23.248Z,90.24
2019-05-17T10:05:49.537Z,89.73
2019-05-17T10:08:16.883Z,89.19
2019-05-17T10:10:44.268Z,88.50
2019-05-17T10:13:11.465Z,88.67
2019-05-17T10:15:40.856Z,87.94
2019-05-17T10:18:11.030Z,87.51
2019-05-17T10:20:39.901Z,88.34
2019-05-17T10:23:07.140Z,88.05
2019-05-17T10:25:35.728Z,87.95
2019-05-17T10:28:03.425Z,88.00
2019-05-17T10:30:30.869Z,87.80
2019-05-17T10:32:59.998Z,88.71
2019-05-17T10:35:29.520Z,88.16
2019-05-17T10:37:59.355Z,89.29
2019-05-17T10:40:29.922Z,89.20
2019-05-17T10:42:57.251Z,89.39
2019-05-17T10:45:24.962Z,88.46
2019-05-17T10:47:53.609Z,88.85
2019-05-17T10:50:21.436Z,86.94
2019-05-17T10:52:49.206Z,87.85
2019-05-17T10:55:16.744Z,89.59
2019-05-17T10:57:45.315Z,88.48
2019-05-17T11:00:14.715Z,88.97
2019-05-17T11:02:42.212Z,88.83
2019-05-17T11:05:11.088Z,87.00
2019-05-17T11:07:38.779Z,87.55
2019-05-17T11:10:07.066Z,87.95
2019-05-17T11:12:34.569Z,88.43
2019-05-17T11:15:10.926Z,87.76
2019-05-17T11:17:31.736Z,87.26
2019-05-17T11:19:59.136Z,88.69
2019-05-17T11:22:26.874Z,88.87
2019-05-17T11:24:54.301Z,88.36
2019-05-17T11:27:21.650Z,89.16
2019-05-17T11:29:49.426Z,89.25
2019-05-17T11:32:17.051Z,89.21
2019-05-17T11:34:44.433Z,88.52
2019-05-17T11:37:12.788Z,88.13
2019-05-17T11:39:40.244Z,87.55
2019-05-17T11:42:07.543Z,88.47
2019-05-17T11:44:34.935Z,87.32
2019-05-17T11:47:02.504Z,87.98
2019-05-17T11:49:30.317Z,88.93
2019-05-17T11:51:57.943Z,89.15
2019-05-17T11:54:25.526Z,88.63
2019-05-17T11:56:52.757Z,89.48
2019-05-17T11:59:20.038Z,89.44
2019-05-17T12:01:49.141Z,89.95
2019-05-17T12:04:16.457Z,89.18
2019-05-17T12:06:44.137Z,89.38
2019-05-17T12:09:11.956Z,90.10
2019-05-17T12:11:39.335Z,89.66
2019-05-17T12:14:06.774Z,90.57
2019-05-17T12:16:34.037Z,90.93
2019-05-17T12:19:02.373Z,91.02
2019-05-17T12:21:31.074Z,90.71
2019-05-17T12:23:58.247Z,90.46
2019-05-17T12:26:25.786Z,90.75
2019-05-17T12:28:54.050Z,90.03
2019-05-17T12:31:21.302Z,90.54
2019-05-17T12:33:48.809Z,91.16
2019-05-17T12:36:16.117Z,91.65
2019-05-17T12:38:43.921Z,91.75
2019-05-17T12:41:11.955Z,91.87
2019-05-17T12:43:39.521Z,92.22
2019-05-17T12:46:06.809Z,91.72
2019-05-17T12:48:34.158Z,90.87
2019-05-17T12:51:01.532Z,89.99
2019-05-17T12:53:30.185Z,89.24
2019-05-17T12:55:57.499Z,88.82
2019-05-17T12:58:25.124Z,86.87
2019-05-17T13:00:53.571Z,87.35
2019-05-17T13:03:21.200Z,87.23
2019-05-17T13:05:48.400Z,85.34
2019-05-17T13:08:16.285Z,85.59
2019-05-17T13:10:44.082Z,84.84
2019-05-17T13:13:11.999Z,84.14
2019-05-17T13:15:39.155Z,84.26
2019-05-17T13:18:06.399Z,83.23
2019-05-17T13:20:33.867Z,81.07
2019-05-17T13:23:01.672Z,81.16
2019-05-17T13:25:29.288Z,79.00
2019-05-17T13:27:56.899Z,74.35
2019-05-17T13:30:25.901Z,74.37
2019-05-17T13:32:53.466Z,74.32
2019-05-17T13:35:20.851Z,76.16
2019-05-17T13:37:48.222Z,76.34
2019-05-17T13:40:15.851Z,77.86
2019-05-17T13:42:43.411Z,79.00
2019-05-17T13:45:11.254Z,76.77
2019-05-17T13:47:39.398Z,77.92
2019-05-17T13:50:07.658Z,77.74
2019-05-17T13:52:35.312Z,77.23
2019-05-17T13:55:03.747Z,75.35
2019-05-17T13:57:31.269Z,76.74
2019-05-17T13:59:58.941Z,74.47
2019-05-17T14:02:27.011Z,74.86
2019-05-17T14:04:54.234Z,75.44
2019-05-17T14:07:21.637Z,75.30
2019-05-17T14:09:49.365Z,75.88
2019-05-17T14:12:16.929Z,76.50
2019-05-17T14:14:44.267Z,75.45
2019-05-17T14:17:12.251Z,75.13
2019-05-17T14:19:39.486Z,75.94
2019-05-17T14:22:07.186Z,74.73
2019-05-17T14:24:34.917Z,75.83
2019-05-17T14:27:02.075Z,74.97
2019-05-17T14:29:29.881Z,75.55
2019-05-17T14:31:57.054Z,75.04
2019-05-17T14:34:24.586Z,74.67
2019-05-17T14:36:51.977Z,75.66
2019-05-17T14:39:19.425Z,75.50
2019-05-17T14:41:46.984Z,75.48
2019-05-17T14:44:14.279Z,76.69
2019-05-17T14:46:41.674Z,76.91
2019-05-17T14:49:09.105Z,76.99
2019-05-17T14:51:36.677Z,77.27
2019-05-17T14:54:04.092Z,76.38
2019-05-17T14:56:31.455Z,77.35
2019-05-17T14:58:58.700Z,75.58
2019-05-17T15:01:26.517Z,75.75
2019-05-17T15:03:54.419Z,75.59
2019-05-17T15:06:21.849Z,76.13
2019-05-17T15:08:49.147Z,75.79
2019-05-17T15:11:16.834Z,76.46
2019-05-17T15:13:43.981Z,75.44
2019-05-17T15:16:11.207Z,74.45
2019-05-17T15:18:38.537Z,73.89
2019-05-17T15:21:05.713Z,73.08
2019-05-17T15:23:32.897Z,73.02
2019-05-17T15:26:00.594Z,73.84
2019-05-17T15:28:28.484Z,74.81
2019-05-17T15:30:56.190Z,75.07
2019-05-17T15:33:23.782Z,74.88
2019-05-17T15:35:52.065Z,74.89
2019-05-17T15:38:19.594Z,74.83
2019-05-17T15:40:47.320Z,75.62
2019-05-17T15:43:14.742Z,75.28
2019-05-17T15:45:42.226Z,75.77
2019-05-17T15:48:09.753Z,76.21
2019-05-17T15:50:37.107Z,76.91
2019-05-17T15:53:04.358Z,77.49
2019-05-17T15:55:33.011Z,77.29
2019-05-17T15:58:00.507Z,77.49
2019-05-17T16:00:28.123Z,77.70
2019-05-17T16:02:55.879Z,77.57
2019-05-17T16:05:23.279Z,77.19
2019-05-17T16:07:51.164Z,77.98
2019-05-17T16:10:19.531Z,76.95
2019-05-17T16:13:00.882Z,76.54
2019-05-17T16:15:17.270Z,76.89
2019-05-17T16:17:51.936Z,76.80
2019-05-17T16:20:19.533Z,76.39
2019-05-17T16:22:47.321Z,76.47
2019-05-17T16:25:15.257Z,76.53
2019-05-17T16:27:46.904Z,76.50
2019-05-17T16:30:14.309Z,76.47
2019-05-17T16:32:41.672Z,76.55
2019-05-17T16:35:09.372Z,74.32
2019-05-17T16:37:36.889Z,74.03
2019-05-17T16:40:04.678Z,73.69
2019-05-17T16:42:32.112Z,72.53
2019-05-17T16:44:59.777Z,73.12
2019-05-17T16:47:27.212Z,73.53
2019-05-17T16:49:54.729Z,72.32
2019-05-17T16:52:22.142Z,73.02
2019-05-17T16:54:49.582Z,71.92
2019-05-17T16:57:17.519Z,72.28
2019-05-17T16:59:45.106Z,72.82
2019-05-17T17:02:12.606Z,71.68
2019-05-17T17:04:41.691Z,72.17
2019-05-17T17:07:10.088Z,72.10
2019-05-17T17:09:37.521Z,70.47
2019-05-17T17:12:05.317Z,71.04
2019-05-17T17:14:32.890Z,70.98
2019-05-17T17:17:00.321Z,68.52
2019-05-17T17:19:27.837Z,69.02
2019-05-17T17:21:55.890Z,68.70
2019-05-17T17:24:23.261Z,69.23
2019-05-17T17:26:50.862Z,70.11
2019-05-17T17:29:18.569Z,70.92
2019-05-17T17:31:46.045Z,70.69
2019-05-17T17:34:13.682Z,70.90
2019-05-17T17:36:41.327Z,71.83
2019-05-17T17:39:08.765Z,71.97
2019-05-17T17:41:36.669Z,72.16
2019-05-17T17:44:04.225Z,72.39
2019-05-17T17:46:31.930Z,72.22
2019-05-17T17:48:59.969Z,71.92
2019-05-17T17:51:27.463Z,72.97
2019-05-17T17:53:55.115Z,73.59
2019-05-17T17:56:22.933Z,72.87
2019-05-17T17:58:50.714Z,73.11
2019-05-17T18:01:18.272Z,73.66
2019-05-17T18:03:45.704Z,73.77
2019-05-17T18:06:12.883Z,73.17
2019-05-17T18:08:40.459Z,73.83
2019-05-17T18:11:08.311Z,74.02
2019-05-17T18:13:36.212Z,74.08
2019-05-17T18:16:03.955Z,74.99
2019-05-17T18:18:31.250Z,75.45
2019-05-17T18:20:59.076Z,76.28
2019-05-17T18:23:26.712Z,76.75
2019-05-17T18:25:55.206Z,77.17
2019-05-17T18:28:23.213Z,77.61
2019-05-17T18:30:50.699Z,77.79
2019-05-17T18:33:18.459Z,78.21
2019-05-17T18:35:46.630Z,78.99
2019-05-17T18:38:17.636Z,79.56
2019-05-17T18:40:45.000Z,79.84
2019-05-17T18:43:12.403Z,80.16
2019-05-17T18:45:39.749Z,80.35
2019-05-17T18:48:06.920Z,80.76
2019-05-17T18:50:34.315Z,81.11
2019-05-17T18:53:02.500Z,81.53
2019-05-17T18:55:30.419Z,81.89
2019-05-17T18:57:57.827Z,82.56
2019-05-17T19:00:25.301Z,82.67
2019-05-17T19:02:52.951Z,83.35
2019-05-17T19:05:21.734Z,83.67
2019-05-17T19:07:49.432Z,83.98
2019-05-17T19:10:18.024Z,84.23
2019-05-17T19:12:45.598Z,84.44
2019-05-17T19:15:13.862Z,84.54
2019-05-17T19:17:41.320Z,84.69
2019-05-17T19:20:09.409Z,85.17
2019-05-17T19:22:36.806Z,85.41
2019-05-17T19:25:06.167Z,85.51
2019-05-17T19:27:33.568Z,85.65
2019-05-17T19:30:01.223Z,85.76
2019-05-17T19:32:28.748Z,86.02
2019-05-17T19:34:57.380Z,86.42
2019-05-17T19:37:24.983Z,86.31
2019-05-17T19:39:52.983Z,86.49
2019-05-17T19:42:22.778Z,86.60
2019-05-17T19:44:58.618Z,86.93
2019-05-17T19:47:19.416Z,87.03
2019-05-17T19:49:46.932Z,87.17
2019-05-17T19:52:15.491Z,87.38
2019-05-17T19:54:42.873Z,87.55
2019-05-17T19:57:10.803Z,87.70
2019-05-17T19:59:38.241Z,88.33
2019-05-17T20:02:06.657Z,88.40
2019-05-17T20:04:34.715Z,88.51
2019-05-17T20:07:02.426Z,88.40
2019-05-17T20:09:30.209Z,88.33
2019-05-17T20:11:57.969Z,88.63
2019-05-17T20:14:25.691Z,88.77
2019-05-17T20:16:53.343Z,88.75
2019-05-17T20:19:21.213Z,88.77
2019-05-17T20:21:48.779Z,88.89
2019-05-17T20:24:18.279Z,89.10
2019-05-17T20:26:45.954Z,89.05
2019-05-17T20:29:13.715Z,89.00
2019-05-17T20:31:41.272Z,89.00
2019-05-17T20:34:08.921Z,89.18
2019-05-17T20:36:36.251Z,89.09
2019-05-17T20:39:04.492Z,89.26
2019-05-17T20:41:32.350Z,89.23
2019-05-17T20:44:00.086Z,89.29
2019-05-17T20:46:30.535Z,89.31
2019-05-17T20:48:57.858Z,89.22
2019-05-17T20:51:25.417Z,89.14
2019-05-17T20:53:53.156Z,89.36
2019-05-17T20:56:32.722Z,89.41
2019-05-17T20:58:51.602Z,89.23
2019-05-17T21:01:19.057Z,89.25
2019-05-17T21:03:46.333Z,89.12
2019-05-17T21:06:13.800Z,88.94
2019-05-17T21:08:46.195Z,89.26
2019-05-17T21:11:12.474Z,89.07
2019-05-17T21:13:40.081Z,89.00
2019-05-17T21:16:07.213Z,88.91
2019-05-17T21:18:34.689Z,89.09
2019-05-17T21:21:02.367Z,89.18
2019-05-17T21:23:29.863Z,88.67
2019-05-17T21:25:59.304Z,88.43
2019-05-17T21:28:27.137Z,88.38
2019-05-17T21:30:54.604Z,88.39
2019-05-17T21:33:22.105Z,88.58
2019-05-17T21:35:49.820Z,88.70
2019-05-17T21:38:17.387Z,88.79
2019-05-17T21:40:44.852Z,88.64
2019-05-17T21:43:12.194Z,88.71
2019-05-17T21:45:40.271Z,88.59
2019-05-17T21:48:07.384Z,88.83
2019-05-17T21:50:35.005Z,88.76
2019-05-17T21:53:03.630Z,88.99
2019-05-17T21:55:31.237Z,88.93
2019-05-17T21:58:00.552Z,88.85
2019-05-17T22:00:53.432Z,88.75
2019-05-17T22:03:21.263Z,88.85
2019-05-17T22:05:48.554Z,88.79
2019-05-17T22:08:16.106Z,88.75
2019-05-17T22:10:44.012Z,88.57
2019-05-17T22:13:11.671Z,88.90
2019-05-17T22:15:39.268Z,88.93
2019-05-17T22:18:06.881Z,89.11
2019-05-17T22:20:34.563Z,88.88
2019-05-17T22:23:02.336Z,88.75
2019-05-17T22:25:30.026Z,89.07
2019-05-17T22:27:57.745Z,89.03
2019-05-17T22:30:25.241Z,89.60
2019-05-17T22:32:53.647Z,89.49
2019-05-17T22:35:21.106Z,89.51
2019-05-17T22:37:49.120Z,89.59
2019-05-17T22:40:17.021Z,89.32
2019-05-17T22:42:44.452Z,89.27
2019-05-17T22:45:12.116Z,89.27
2019-05-17T22:47:39.623Z,89.51
2019-05-17T22:50:07.718Z,89.44
2019-05-17T22:52:35.441Z,89.61
2019-05-17T22:55:02.866Z,89.64
2019-05-17T22:57:31.537Z,89.45
2019-05-17T23:00:00.557Z,89.38
2019-05-17T23:02:28.005Z,89.54
2019-05-17T23:04:55.732Z,89.61
2019-05-17T23:07:23.290Z,89.34
2019-05-17T23:09:51.158Z,89.32
2019-05-17T23:12:19.183Z,89.50
2019-05-17T23:14:46.950Z,89.80
2019-05-17T23:17:14.674Z,89.82
2019-05-17T23:19:42.237Z,89.92
2019-05-17T23:22:09.714Z,90.10
2019-05-17T23:24:37.628Z,90.12
2019-05-17T23:27:05.028Z,90.11
2019-05-17T23:29:32.784Z,90.44
2019-05-17T23:32:00.558Z,90.75
2019-05-17T23:34:28.136Z,91.21
2019-05-17T23:36:55.932Z,91.32
2019-05-17T23:39:23.803Z,91.56
2019-05-17T23:41:51.306Z,91.83
2019-05-17T23:44:19.018Z,91.83
2019-05-17T23:46:47.725Z,92.52
2019-05-17T23:49:15.185Z,92.63
2019-05-17T23:51:42.798Z,92.50
2019-05-17T23:54:10.346Z,92.28
2019-05-17T23:56:37.953Z,92.22
2019-05-17T23:59:05.433Z,92.21
